Time;durP1;ratioP1;P1;durP2;ratioP2;P2;SDS_P1;SDS_P2;PMS_P1;PMS_P2;Temp;Humidity;BMP_temperature;BMP_pressure;BME280_temperature;BME280_humidity;BME280_pressure;Samples;Min_cycle;Max_cycle;Signal;HPM_P1;HPM_P2
2022/07/14 00:01:42;;;;;;;;;;;;;;;27.81;37.28;101068.95;105342;1299;62169;-81
2022/07/14 00:04:07;;;;;;;;;;;;;;;27.81;37.06;101068.20;105318;1300;62274;-81
2022/07/14 00:06:34;;;;;;;;;;;;;;;27.81;37.22;101066.41;105370;1300;62047;-81
2022/07/14 00:08:59;;;;;;;;;;;;;;;27.82;37.12;101064.38;105236;1299;62059;-81
2022/07/14 00:11:25;;;;;;;;;;;;;;;27.81;37.17;101059.55;105350;1300;62053;-81
2022/07/14 00:13:50;;;;;;;;;;;;;;;27.81;37.32;101054.91;105227;1300;73778;-81
2022/07/14 00:16:16;;;;;;;;;;;;;;;27.81;37.03;101055.27;105335;1299;62186;-81
2022/07/14 00:18:44;;;;;;;;;;;;;;;27.81;37.09;101055.25;105268;1300;62152;-81
2022/07/14 00:21:11;;;;;;;;;;;;;;;27.81;37.17;101060.47;105349;1298;62093;-81
2022/07/14 00:23:36;;;;;;;;;;;;;;;27.81;37.01;101058.70;105227;1300;61950;-81
2022/07/14 00:26:05;;;;;;;;;;;;;;;27.80;37.14;101057.45;105259;1300;62152;-81
2022/07/14 00:28:30;;;;;;;;;;;;;;;27.80;37.24;101053.17;105279;1299;62174;-81
2022/07/14 00:30:58;;;;;;;;;;;;;;;27.80;37.13;101050.98;105220;1299;62059;-81
2022/07/14 00:33:23;;;;;;;;;;;;;;;27.80;37.21;101057.66;105337;1299;72653;-81
2022/07/14 00:35:49;;;;;;;;;;;;;;;27.80;37.07;101057.31;105324;1299;62087;-81
2022/07/14 00:38:14;;;;;;;;;;;;;;;27.80;37.13;101056.23;105213;1299;62206;-81
2022/07/14 00:40:40;;;;;;;;;;;;;;;27.80;37.28;101065.65;105210;1300;62062;-81
2022/07/14 00:43:05;;;;;;;;;;;;;;;27.80;37.15;101058.09;105331;1300;62082;-81
2022/07/14 00:45:31;;;;;;;;;;;;;;;27.79;37.23;101061.72;105226;1300;62066;-81
2022/07/14 00:47:57;;;;;;;;;;;;;;;27.80;37.17;101063.69;105157;1300;62165;-81
2022/07/14 00:50:22;;;;;;;;;;;;;;;27.79;37.24;101064.63;105256;1300;62206;-81
2022/07/14 00:52:49;;;;;;;;;;;;;;;27.79;37.37;101065.16;105350;1299;62055;-81
2022/07/14 00:55:15;;;;;;;;;;;;;;;27.79;37.43;101060.11;105352;1300;61966;-81
2022/07/14 00:57:40;;;;;;;;;;;;;;;27.79;37.09;101061.00;105269;1300;62164;-81
2022/07/14 01:00:07;;;;;;;;;;;;;;;27.79;37.19;101057.96;105268;1300;62141;-81
2022/07/14 01:02:33;;;;;;;;;;;;;;;27.79;37.37;101059.94;105332;1300;62064;-81
2022/07/14 01:04:58;;;;;;;;;;;;;;;27.79;37.26;101054.54;105336;1300;62049;-81
2022/07/14 01:07:24;;;;;;;;;;;;;;;27.79;37.26;101048.95;105301;1300;62888;-81
2022/07/14 01:09:49;;;;;;;;;;;;;;;27.78;37.23;101049.17;105307;1300;62056;-81
2022/07/14 01:12:15;;;;;;;;;;;;;;;27.78;37.25;101049.73;105418;1300;62035;-81
2022/07/14 01:14:41;;;;;;;;;;;;;;;27.78;37.40;101047.89;105225;1299;62191;-81
2022/07/14 01:17:06;;;;;;;;;;;;;;;27.78;37.36;101050.27;105250;1300;62094;-81
2022/07/14 01:19:32;;;;;;;;;;;;;;;27.78;37.34;101060.39;105214;1300;62081;-81
2022/07/14 01:21:58;;;;;;;;;;;;;;;27.77;37.30;101051.61;105294;1300;61889;-81
2022/07/14 01:24:23;;;;;;;;;;;;;;;27.78;37.30;101048.29;105354;1300;62169;-81
2022/07/14 01:26:49;;;;;;;;;;;;;;;27.77;37.35;101048.70;105271;1300;62058;-81
2022/07/14 01:29:15;;;;;;;;;;;;;;;27.78;37.48;101047.75;105391;1299;62052;-81
2022/07/14 01:31:40;;;;;;;;;;;;;;;27.78;37.33;101051.75;105339;1299;62190;-81
2022/07/14 01:34:06;;;;;;;;;;;;;;;27.77;37.17;101050.52;105242;1299;62182;-81
2022/07/14 01:36:32;;;;;;;;;;;;;;;27.77;37.27;101052.70;105226;1299;62186;-81
2022/07/14 01:38:57;;;;;;;;;;;;;;;27.77;37.37;101046.77;105174;1300;62158;-81
2022/07/14 01:41:23;;;;;;;;;;;;;;;27.76;37.16;101042.62;105360;1300;62080;-81
2022/07/14 01:43:49;;;;;;;;;;;;;;;27.77;37.42;101046.56;105324;1300;72840;-81
2022/07/14 01:46:14;;;;;;;;;;;;;;;27.76;37.38;101051.13;105333;1300;63258;-81
2022/07/14 01:48:41;;;;;;;;;;;;;;;27.76;37.25;101055.29;105311;1300;62042;-81
2022/07/14 01:51:06;;;;;;;;;;;;;;;27.76;37.41;101049.55;105373;1299;61816;-81
2022/07/14 01:53:32;;;;;;;;;;;;;;;27.76;37.20;101052.43;105319;1299;62062;-81
2022/07/14 01:55:58;;;;;;;;;;;;;;;27.76;37.55;101053.17;105355;1300;62084;-81
2022/07/14 01:58:24;;;;;;;;;;;;;;;27.76;37.46;101048.13;105285;1298;62276;-81
2022/07/14 02:03:34;;;;;;;;;;;;;;;27.75;37.32;101049.81;105226;1300;61861;-81
2022/07/14 02:06:00;;;;;;;;;;;;;;;27.75;37.42;101051.62;105246;1299;62138;-81
2022/07/14 02:08:26;;;;;;;;;;;;;;;27.75;37.22;101049.10;105232;1299;62051;-81
2022/07/14 02:13:36;;;;;;;;;;;;;;;27.75;37.26;101048.72;105240;1300;62861;-81
2022/07/14 02:16:01;;;;;;;;;;;;;;;27.75;37.54;101047.85;105328;1300;62099;-81
2022/07/14 02:18:27;;;;;;;;;;;;;;;27.75;37.37;101052.15;105232;1300;62039;-81
2022/07/14 02:20:52;;;;;;;;;;;;;;;27.74;37.39;101055.30;105358;1300;62065;-81
2022/07/14 02:23:18;;;;;;;;;;;;;;;27.74;37.38;101055.48;105356;1300;62225;-81
2022/07/14 02:25:43;;;;;;;;;;;;;;;27.75;37.31;101060.70;105203;1299;62216;-81
2022/07/14 02:28:09;;;;;;;;;;;;;;;27.74;37.50;101060.52;105363;1300;62077;-81
2022/07/14 02:30:35;;;;;;;;;;;;;;;27.74;37.32;101060.20;105325;1300;62084;-81
2022/07/14 02:33:00;;;;;;;;;;;;;;;27.74;37.30;101061.13;105239;1299;62164;-81
2022/07/14 02:35:27;;;;;;;;;;;;;;;27.74;37.55;101060.78;105239;1300;62154;-81
2022/07/14 02:37:52;;;;;;;;;;;;;;;27.74;37.54;101062.95;105391;1298;62064;-81
2022/07/14 02:40:18;;;;;;;;;;;;;;;27.74;37.30;101062.24;105342;1300;71665;-81
2022/07/14 02:42:43;;;;;;;;;;;;;;;27.73;37.24;101063.36;105310;1300;62235;-81
2022/07/14 02:45:09;;;;;;;;;;;;;;;27.73;37.46;101063.04;105233;1298;62083;-81
2022/07/14 02:47:35;;;;;;;;;;;;;;;27.73;37.33;101063.94;105270;1299;62148;-81
2022/07/14 02:50:00;;;;;;;;;;;;;;;27.73;37.42;101067.16;105236;1299;62508;-81
2022/07/14 02:52:26;;;;;;;;;;;;;;;27.73;37.45;101063.59;105407;1300;62086;-81
2022/07/14 02:54:51;;;;;;;;;;;;;;;27.73;37.52;101063.24;105255;1298;61872;-81
2022/07/14 02:57:17;;;;;;;;;;;;;;;27.72;37.34;101066.33;105253;1299;62090;-81
2022/07/14 02:59:42;;;;;;;;;;;;;;;27.73;37.42;101072.81;105364;1300;62021;-81
2022/07/14 03:02:08;;;;;;;;;;;;;;;27.73;37.55;101071.15;105251;1299;62097;-81
2022/07/14 03:04:33;;;;;;;;;;;;;;;27.72;37.44;101072.83;105314;1299;72673;-81
2022/07/14 03:06:59;;;;;;;;;;;;;;;27.73;37.47;101077.70;105358;1298;62174;-81
2022/07/14 03:09:25;;;;;;;;;;;;;;;27.73;37.45;101080.40;105222;1299;62090;-81
2022/07/14 03:11:50;;;;;;;;;;;;;;;27.72;37.60;101081.89;105153;1300;62190;-81
2022/07/14 03:14:16;;;;;;;;;;;;;;;27.72;37.52;101081.38;105247;1300;62158;-81
2022/07/14 03:16:41;;;;;;;;;;;;;;;27.73;37.26;101080.79;105288;1300;62248;-81
2022/07/14 03:19:07;;;;;;;;;;;;;;;27.72;37.43;101083.71;105369;1299;62122;-81
2022/07/14 03:21:32;;;;;;;;;;;;;;;27.73;37.48;101091.09;105336;1299;62255;-81
2022/07/14 03:23:58;;;;;;;;;;;;;;;27.72;37.52;101094.36;105211;1300;62045;-81
2022/07/14 03:26:24;;;;;;;;;;;;;;;27.72;37.37;101094.88;105250;1299;62061;-81
2022/07/14 03:28:49;;;;;;;;;;;;;;;27.73;37.63;101089.29;105408;1299;62052;-81
2022/07/14 03:31:15;;;;;;;;;;;;;;;27.73;37.60;101093.46;105291;1299;75331;-81
2022/07/14 03:33:40;;;;;;;;;;;;;;;27.72;37.71;101089.83;105367;1299;62221;-81
2022/07/14 03:36:06;;;;;;;;;;;;;;;27.73;37.51;101092.17;105342;1299;62073;-81
2022/07/14 03:38:31;;;;;;;;;;;;;;;27.73;37.40;101088.74;105245;1300;62052;-81
2022/07/14 03:40:57;;;;;;;;;;;;;;;27.73;37.52;101090.55;105411;1300;62089;-81
2022/07/14 03:43:22;;;;;;;;;;;;;;;27.72;37.43;101090.97;105238;1300;62250;-81
2022/07/14 03:45:48;;;;;;;;;;;;;;;27.72;37.55;101093.83;105265;1299;59495;-81
2022/07/14 03:48:14;;;;;;;;;;;;;;;27.73;37.23;101103.39;105365;1298;62100;-81
2022/07/14 03:50:40;;;;;;;;;;;;;;;27.72;37.45;101100.70;105350;1300;61965;-81
2022/07/14 03:53:05;;;;;;;;;;;;;;;27.72;37.67;101103.79;105302;1299;62062;-81
2022/07/14 03:55:31;;;;;;;;;;;;;;;27.72;37.50;101104.67;105311;1298;62088;-81
2022/07/14 03:57:59;;;;;;;;;;;;;;;27.73;37.50;101108.27;105292;1300;62073;-81
2022/07/14 04:00:24;;;;;;;;;;;;;;;27.73;37.30;101110.98;105270;1300;62081;-81
2022/07/14 04:02:50;;;;;;;;;;;;;;;27.73;37.16;101106.48;105357;1299;62068;-81
2022/07/14 04:05:15;;;;;;;;;;;;;;;27.73;37.57;101113.30;105253;1300;62085;-81
2022/07/14 04:07:41;;;;;;;;;;;;;;;27.73;37.60;101107.50;105281;1300;62202;-81
2022/07/14 04:10:06;;;;;;;;;;;;;;;27.73;37.37;101113.29;105306;1300;62119;-81
2022/07/14 04:12:32;;;;;;;;;;;;;;;27.73;37.68;101112.73;105331;1300;62165;-81
2022/07/14 04:14:57;;;;;;;;;;;;;;;27.73;37.55;101112.75;105240;1300;62212;-81
2022/07/14 04:17:23;;;;;;;;;;;;;;;27.74;37.62;101116.11;105241;1300;62075;-81
2022/07/14 04:19:49;;;;;;;;;;;;;;;27.74;37.61;101117.69;105379;1300;62193;-81
2022/07/14 04:22:14;;;;;;;;;;;;;;;27.75;37.68;101119.28;105351;1300;62050;-81
2022/07/14 04:24:41;;;;;;;;;;;;;;;27.75;37.41;101117.77;105317;1300;62043;-81
2022/07/14 04:27:07;;;;;;;;;;;;;;;27.76;37.50;101119.91;105162;1299;62496;-81
2022/07/14 04:29:32;;;;;;;;;;;;;;;27.76;37.48;101120.20;105336;1300;62081;-81
2022/07/14 04:31:58;;;;;;;;;;;;;;;27.77;37.55;101118.33;105348;1300;62016;-81
2022/07/14 04:34:23;;;;;;;;;;;;;;;27.78;37.63;101121.56;105335;1300;62111;-81
2022/07/14 04:36:49;;;;;;;;;;;;;;;27.79;37.65;101119.85;105411;1300;62024;-81
2022/07/14 04:39:14;;;;;;;;;;;;;;;27.79;37.51;101116.91;105238;1300;62084;-81
2022/07/14 04:41:40;;;;;;;;;;;;;;;27.80;37.50;101119.73;105255;1300;62106;-81
2022/07/14 04:44:05;;;;;;;;;;;;;;;27.80;37.57;101122.59;105236;1299;62085;-81
2022/07/14 04:46:31;;;;;;;;;;;;;;;27.81;37.44;101123.06;105266;1300;62111;-81
2022/07/14 04:54:25;;;;;;;;;;;;;;;27.84;37.49;101124.04;105250;1300;75759;-81
2022/07/14 04:56:50;;;;;;;;;;;;;;;27.85;37.54;101126.96;105239;1300;62158;-81
2022/07/14 04:59:15;;;;;;;;;;;;;;;27.86;37.31;101127.40;105338;1299;62060;-81
2022/07/14 05:01:41;;;;;;;;;;;;;;;27.87;37.21;101134.55;105247;1299;62057;-81
2022/07/14 05:04:06;;;;;;;;;;;;;;;27.88;37.40;101135.02;105281;1300;62123;-81
2022/07/14 05:06:33;;;;;;;;;;;;;;;27.89;37.33;101135.63;105284;1300;75627;-81
2022/07/14 05:08:59;;;;;;;;;;;;;;;27.90;37.32;101135.90;105364;1300;62052;-81
2022/07/14 05:11:25;;;;;;;;;;;;;;;27.90;37.40;101134.60;105349;1299;61963;-81
2022/07/14 05:13:53;;;;;;;;;;;;;;;27.91;37.29;101131.45;105241;1300;62167;-81
2022/07/14 05:16:19;;;;;;;;;;;;;;;27.92;37.31;101140.23;105347;1298;74324;-81
2022/07/14 05:18:44;;;;;;;;;;;;;;;27.92;37.37;101142.73;105285;1298;62085;-82
2022/07/14 05:21:09;;;;;;;;;;;;;;;27.93;37.17;101140.13;105349;1300;61994;-82
2022/07/14 05:23:35;;;;;;;;;;;;;;;27.93;37.02;101138.28;105284;1300;62059;-81
2022/07/14 05:26:00;;;;;;;;;;;;;;;27.95;37.16;101144.37;105384;1300;62164;-81
2022/07/14 05:28:26;;;;;;;;;;;;;;;27.95;36.95;101142.67;105361;1299;75471;-81
2022/07/14 05:30:58;;;;;;;;;;;;;;;27.96;37.11;101143.15;105222;1299;62091;-81
2022/07/14 05:33:24;;;;;;;;;;;;;;;27.96;36.97;101146.74;105246;1300;62042;-81
2022/07/14 05:35:50;;;;;;;;;;;;;;;27.97;36.96;101146.14;105259;1300;62068;-81
2022/07/14 05:38:15;;;;;;;;;;;;;;;27.98;37.00;101142.95;105256;1300;62211;-81
2022/07/14 05:40:41;;;;;;;;;;;;;;;27.99;36.76;101142.35;105318;1300;62081;-81
2022/07/14 05:43:06;;;;;;;;;;;;;;;27.99;36.90;101145.90;105283;1300;62158;-81
2022/07/14 05:45:32;;;;;;;;;;;;;;;28.00;36.60;101147.48;105388;1299;62085;-81
2022/07/14 05:47:58;;;;;;;;;;;;;;;28.01;36.76;101150.66;105314;1300;62044;-81
2022/07/14 05:50:23;;;;;;;;;;;;;;;28.01;36.65;101152.26;105176;1299;62155;-81
2022/07/14 05:52:49;;;;;;;;;;;;;;;28.02;36.64;101151.48;105101;1302;62132;-81
2022/07/14 05:55:14;;;;;;;;;;;;;;;28.03;36.75;101154.11;105232;1302;62059;-81
2022/07/14 05:57:39;;;;;;;;;;;;;;;28.03;36.31;101152.45;105143;1302;62078;-81
2022/07/14 06:00:06;;;;;;;;;;;;;;;28.03;36.36;101151.14;105015;1302;62218;-81
2022/07/14 06:02:31;;;;;;;;;;;;;;;28.04;36.58;101150.55;105070;1302;62091;-81
2022/07/14 06:04:57;;;;;;;;;;;;;;;28.05;36.35;101154.55;104911;1301;62111;-81
2022/07/14 06:07:22;;;;;;;;;;;;;;;28.06;36.32;101156.88;105154;1302;62093;-81
2022/07/14 06:09:49;;;;;;;;;;;;;;;28.06;36.42;101161.18;105219;1301;62042;-81
2022/07/14 06:12:15;;;;;;;;;;;;;;;28.07;36.30;101159.49;105149;1302;71820;-80
2022/07/14 06:14:41;;;;;;;;;;;;;;;28.07;36.15;101163.79;105092;1302;62087;-81
2022/07/14 06:17:06;;;;;;;;;;;;;;;28.07;36.24;101162.69;105158;1301;62176;-82
2022/07/14 06:19:32;;;;;;;;;;;;;;;28.08;35.91;101158.84;105201;1302;62083;-81
2022/07/14 06:21:57;;;;;;;;;;;;;;;28.08;36.03;101160.23;105138;1302;62156;-81
2022/07/14 06:24:22;;;;;;;;;;;;;;;28.08;36.01;101157.17;105210;1302;62088;-81
2022/07/14 06:26:48;;;;;;;;;;;;;;;28.09;36.14;101154.56;105155;1302;62176;-81
2022/07/14 06:29:13;;;;;;;;;;;;;;;28.09;36.04;101150.60;104301;1302;1109343;-81
2022/07/14 06:31:39;;;;;;;;;;;;;;;28.09;35.92;101146.60;105090;1302;62134;-80
2022/07/14 06:34:05;;;;;;;;;;;;;;;28.09;35.89;101147.48;105229;1302;61966;-80
2022/07/14 06:36:30;;;;;;;;;;;;;;;28.10;35.84;101149.60;105170;1302;62115;-81
2022/07/14 06:38:56;;;;;;;;;;;;;;;28.11;35.90;101149.20;105105;1302;62105;-81
2022/07/14 06:41:22;;;;;;;;;;;;;;;28.11;35.84;101145.41;105155;1302;61955;-81
2022/07/14 06:43:48;;;;;;;;;;;;;;;28.11;35.74;101145.34;105100;1302;62096;-81
2022/07/14 06:46:14;;;;;;;;;;;;;;;28.11;35.71;101143.38;105061;1302;62056;-81
2022/07/14 06:48:41;;;;;;;;;;;;;;;28.11;35.48;101141.01;105148;1302;62095;-81
2022/07/14 06:51:07;;;;;;;;;;;;;;;28.11;35.76;101139.75;105188;1301;62872;-81
2022/07/14 06:53:33;;;;;;;;;;;;;;;28.12;35.32;101138.05;105200;1302;62486;-81
2022/07/14 06:55:58;;;;;;;;;;;;;;;28.11;35.48;101137.35;105185;1301;62097;-81
2022/07/14 06:58:24;;;;;;;;;;;;;;;28.12;35.39;101135.65;105227;1302;62087;-81
2022/07/14 07:00:49;;;;;;;;;;;;;;;28.12;35.21;101133.31;105087;1302;62161;-81
2022/07/14 07:03:14;;;;;;;;;;;;;;;28.12;35.29;101135.32;104928;1302;63093;-81
2022/07/14 07:08:25;;;;;;;;;;;;;;;28.12;35.50;101128.94;105178;1300;72658;-81
2022/07/14 07:10:50;;;;;;;;;;;;;;;28.13;35.53;101124.94;105160;1300;62064;-81
2022/07/14 07:13:16;;;;;;;;;;;;;;;28.13;35.38;101126.36;105224;1300;62058;-81
2022/07/14 07:15:41;;;;;;;;;;;;;;;28.13;35.30;101121.86;105098;1302;62173;-81
2022/07/14 07:18:07;;;;;;;;;;;;;;;28.13;35.27;101116.02;105190;1300;62057;-81
2022/07/14 07:20:35;;;;;;;;;;;;;;;28.13;35.13;101121.27;105260;1299;62123;-81
2022/07/14 07:23:01;;;;;;;;;;;;;;;28.13;35.34;101122.20;105161;1298;76548;-81
2022/07/14 07:25:27;;;;;;;;;;;;;;;28.13;35.23;101119.52;105154;1303;62085;-81
2022/07/14 07:27:52;;;;;;;;;;;;;;;28.13;35.25;101124.02;105204;1302;62075;-81
2022/07/14 07:30:17;;;;;;;;;;;;;;;28.13;35.04;101121.86;105044;1302;62174;-81
2022/07/14 07:32:43;;;;;;;;;;;;;;;28.13;35.17;101124.95;105222;1302;63188;-81
2022/07/14 07:35:09;;;;;;;;;;;;;;;28.13;35.29;101122.73;105103;1302;62177;-81
2022/07/14 07:37:34;;;;;;;;;;;;;;;28.13;34.95;101120.95;104856;1302;62199;-81
2022/07/14 07:40:00;;;;;;;;;;;;;;;28.14;34.96;101121.05;105098;1302;62186;-81
2022/07/14 07:42:25;;;;;;;;;;;;;;;28.14;34.76;101115.77;105160;1302;62142;-81
2022/07/14 07:44:51;;;;;;;;;;;;;;;28.14;34.91;101114.83;105133;1302;62308;-81
2022/07/14 07:47:16;;;;;;;;;;;;;;;28.15;34.80;101119.34;105242;1302;62063;-81
2022/07/14 07:49:42;;;;;;;;;;;;;;;28.15;34.78;101118.77;104965;1303;62159;-81
2022/07/14 07:52:07;;;;;;;;;;;;;;;28.14;35.08;101116.98;105228;1302;62058;-81
2022/07/14 07:54:33;;;;;;;;;;;;;;;28.15;34.95;101110.45;105194;1301;62226;-81
2022/07/14 07:56:59;;;;;;;;;;;;;;;28.15;34.71;101111.91;105106;1302;62111;-81
2022/07/14 07:59:25;;;;;;;;;;;;;;;28.15;34.66;101108.83;105176;1302;62027;-81
2022/07/14 08:01:50;;;;;;;;;;;;;;;28.15;34.72;101110.79;105286;1302;62056;-81
2022/07/14 08:04:16;;;;;;;;;;;;;;;28.15;34.71;101111.00;105202;1301;61977;-81
2022/07/14 08:06:43;;;;;;;;;;;;;;;28.14;34.51;101109.77;105130;1302;62095;-81
2022/07/14 08:09:11;;;;;;;;;;;;;;;28.15;34.58;101113.70;105162;1302;62109;-81
2022/07/14 08:11:40;;;;;;;;;;;;;;;28.15;34.51;101112.63;105191;1302;62056;-81
2022/07/14 08:14:06;;;;;;;;;;;;;;;28.15;34.55;101106.83;105142;1300;62064;-81
2022/07/14 08:16:31;;;;;;;;;;;;;;;28.15;34.30;101104.24;105037;1300;62072;-81
2022/07/14 08:18:57;;;;;;;;;;;;;;;28.15;34.17;101103.13;105216;1300;62146;-81
2022/07/14 08:21:23;;;;;;;;;;;;;;;28.16;34.35;101104.94;105158;1300;62067;-81
2022/07/14 08:23:50;;;;;;;;;;;;;;;28.16;34.02;101102.55;105070;1302;62042;-81
2022/07/14 08:26:16;;;;;;;;;;;;;;;28.16;33.97;101097.44;105540;1299;62069;-81
2022/07/14 08:28:42;;;;;;;;;;;;;;;28.17;33.90;101094.15;105253;1300;62120;-81
2022/07/14 08:31:07;;;;;;;;;;;;;;;28.17;33.98;101095.23;105301;1299;62058;-81
2022/07/14 08:33:33;;;;;;;;;;;;;;;28.17;33.92;101094.13;105052;1300;61929;-81
2022/07/14 08:35:58;;;;;;;;;;;;;;;28.17;33.73;101092.64;105092;1300;62085;-81
2022/07/14 08:38:24;;;;;;;;;;;;;;;28.18;33.68;101092.06;105174;1300;62016;-81
2022/07/14 08:40:49;;;;;;;;;;;;;;;28.18;33.47;101092.03;105169;1299;62046;-81
2022/07/14 08:43:14;;;;;;;;;;;;;;;28.18;33.45;101084.09;105075;1300;62185;-81
2022/07/14 08:45:41;;;;;;;;;;;;;;;28.18;33.35;101084.77;105128;1299;62178;-81
2022/07/14 08:48:08;;;;;;;;;;;;;;;28.18;33.38;101089.29;105091;1299;61939;-81
2022/07/14 08:50:33;;;;;;;;;;;;;;;28.18;33.72;101085.49;105008;1300;62194;-81
2022/07/14 08:53:03;;;;;;;;;;;;;;;28.18;33.32;101076.42;105093;1300;62309;-82
2022/07/14 08:55:29;;;;;;;;;;;;;;;28.18;32.95;101079.11;105222;1299;62062;-81
2022/07/14 08:57:54;;;;;;;;;;;;;;;28.19;33.01;101080.36;105114;1300;62121;-81
2022/07/14 09:00:20;;;;;;;;;;;;;;;28.19;32.95;101075.46;105226;1299;62234;-81
2022/07/14 09:02:49;;;;;;;;;;;;;;;28.19;33.52;101076.54;105070;1300;62078;-81
2022/07/14 09:05:15;;;;;;;;;;;;;;;28.19;33.61;101077.23;105153;1300;62046;-81
2022/07/14 09:07:41;;;;;;;;;;;;;;;28.19;33.43;101073.29;105221;1300;62187;-81
2022/07/14 09:10:10;;;;;;;;;;;;;;;28.20;33.17;101074.88;105273;1299;62074;-81
2022/07/14 09:12:35;;;;;;;;;;;;;;;28.19;32.90;101074.02;105348;1300;75770;-81
2022/07/14 09:17:49;;;;;;;;;;;;;;;28.19;33.05;101065.11;105246;1300;62084;-81
2022/07/14 09:20:14;;;;;;;;;;;;;;;28.19;32.83;101064.20;105061;1300;71652;-81
2022/07/14 09:22:42;;;;;;;;;;;;;;;28.19;33.17;101059.73;105220;1299;62154;-81
2022/07/14 09:25:08;;;;;;;;;;;;;;;28.19;33.28;101058.60;104967;1299;62063;-81
2022/07/14 09:27:34;;;;;;;;;;;;;;;28.18;33.41;101052.71;105182;1299;62820;-81
2022/07/14 09:30:00;;;;;;;;;;;;;;;28.19;33.23;101050.15;105080;1300;62100;-81
2022/07/14 09:32:45;;;;;;;;;;;;;;;28.19;33.20;101049.80;105156;1300;62209;-81
2022/07/14 09:35:11;;;;;;;;;;;;;;;28.19;32.85;101052.45;105207;1299;62055;-81
2022/07/14 09:37:39;;;;;;;;;;;;;;;28.19;32.84;101052.48;105147;1300;62036;-81
2022/07/14 09:40:05;;;;;;;;;;;;;;;28.20;32.50;101049.73;105202;1299;73739;-81
2022/07/14 09:42:50;;;;;;;;;;;;;;;28.20;32.47;101044.64;105164;1299;62004;-81
2022/07/14 09:45:16;;;;;;;;;;;;;;;28.20;32.47;101040.46;105032;1299;62082;-81
2022/07/14 09:47:52;;;;;;;;;;;;;;;28.20;32.27;101037.91;105114;1302;62214;-82
2022/07/14 09:50:37;;;;;;;;;;;;;;;28.20;32.40;101037.85;104992;1300;73623;-81
2022/07/14 09:53:09;;;;;;;;;;;;;;;28.20;32.81;101033.20;105084;1302;74704;-81
2022/07/14 09:55:36;;;;;;;;;;;;;;;28.19;33.10;101030.38;105224;1299;62052;-81
2022/07/14 09:58:02;;;;;;;;;;;;;;;28.19;33.24;101030.95;105201;1299;62082;-81
2022/07/14 10:00:28;;;;;;;;;;;;;;;28.18;33.35;101028.30;105209;1300;62055;-81
2022/07/14 10:02:53;;;;;;;;;;;;;;;28.18;33.59;101023.80;105157;1301;62161;-81
2022/07/14 10:05:19;;;;;;;;;;;;;;;28.18;33.39;101024.92;105195;1300;62077;-81
2022/07/14 10:07:44;;;;;;;;;;;;;;;28.17;33.71;101029.73;105131;1302;62089;-81
2022/07/14 10:10:13;;;;;;;;;;;;;;;28.16;33.33;101031.21;105090;1300;62203;-81
2022/07/14 10:12:39;;;;;;;;;;;;;;;28.15;33.66;101030.57;104995;1300;73757;-81
2022/07/14 10:15:06;;;;;;;;;;;;;;;28.15;33.43;101029.35;105154;1299;62777;-81
2022/07/14 10:17:31;;;;;;;;;;;;;;;28.15;33.86;101024.33;105177;1300;62084;-81
2022/07/14 10:19:57;;;;;;;;;;;;;;;28.14;33.86;101025.96;105163;1299;62035;-81
2022/07/14 10:22:22;;;;;;;;;;;;;;;28.14;33.90;101019.49;105071;1300;62101;-81
2022/07/14 10:24:49;;;;;;;;;;;;;;;28.14;33.97;101016.80;105057;1302;62121;-81
2022/07/14 10:27:15;;;;;;;;;;;;;;;28.13;33.98;101013.08;105108;1300;62172;-81
2022/07/14 10:29:41;;;;;;;;;;;;;;;28.13;33.96;101006.77;105160;1303;62657;-81
2022/07/14 10:32:13;;;;;;;;;;;;;;;28.13;34.23;101008.58;105124;1302;62052;-81
2022/07/14 10:34:42;;;;;;;;;;;;;;;28.13;34.03;101006.60;105115;1302;72740;-81
2022/07/14 10:37:08;;;;;;;;;;;;;;;28.12;34.09;101003.62;105176;1302;75996;-81
2022/07/14 10:39:53;;;;;;;;;;;;;;;28.12;34.40;101001.25;105140;1302;62194;-81
2022/07/14 10:42:28;;;;;;;;;;;;;;;28.12;34.24;100997.27;105184;1302;62107;-81
2022/07/14 10:44:53;;;;;;;;;;;;;;;28.11;34.26;101000.22;104900;1302;71557;-81
2022/07/14 10:47:20;;;;;;;;;;;;;;;28.11;34.45;100989.54;105148;1303;62107;-81
2022/07/14 10:50:04;;;;;;;;;;;;;;;28.11;34.25;100992.63;105150;1303;62033;-81
2022/07/14 10:52:30;;;;;;;;;;;;;;;28.11;34.36;100986.11;105236;1301;62005;-81
2022/07/14 10:55:14;;;;;;;;;;;;;;;28.11;34.35;100982.70;105177;1301;62056;-81
2022/07/14 10:58:00;;;;;;;;;;;;;;;28.11;34.37;100982.37;105128;1301;76345;-81
2022/07/14 11:00:40;;;;;;;;;;;;;;;28.11;34.56;100980.23;104982;1302;62131;-81
2022/07/14 11:03:25;;;;;;;;;;;;;;;28.11;34.26;100979.32;104909;1302;62094;-81
2022/07/14 11:06:19;;;;;;;;;;;;;;;;;;;;;
2022/07/14 11:08:45;;;;;;;;;;;;;;;28.11;34.53;100973.29;105110;1302;76596;-81
2022/07/14 11:11:17;;;;;;;;;;;;;;;28.11;34.63;100973.11;104825;1303;62079;-81
2022/07/14 11:14:01;;;;;;;;;;;;;;;28.12;34.58;100969.61;105071;1302;62095;-81
2022/07/14 11:17:00;;;;;;;;;;;;;;;28.12;34.51;100969.59;105114;1302;62063;-81
2022/07/14 11:19:33;;;;;;;;;;;;;;;28.13;34.58;100963.55;104550;1306;75476;-81
2022/07/14 11:22:16;;;;;;;;;;;;;;;28.13;34.47;100964.11;104569;1305;62188;-81
2022/07/14 11:24:45;;;;;;;;;;;;;;;28.13;34.74;100968.25;104588;1305;61841;-81
2022/07/14 11:27:30;;;;;;;;;;;;;;;28.13;34.68;100964.80;104674;1306;73716;-81
2022/07/14 11:29:56;;;;;;;;;;;;;;;28.13;34.89;100956.45;104596;1306;75542;-81
2022/07/14 11:32:29;;;;;;;;;;;;;;;28.14;34.77;100960.02;104670;1306;62187;-81
2022/07/14 11:37:56;;;;;;;;;;;;;;;28.15;34.73;100949.58;104695;1305;73925;-81
2022/07/14 11:40:41;;;;;;;;;;;;;;;28.14;34.74;100953.09;104601;1305;76382;-81
2022/07/14 11:43:27;;;;;;;;;;;;;;;28.14;34.99;100952.34;104734;1305;62194;-81
2022/07/14 11:45:53;;;;;;;;;;;;;;;28.14;34.81;100957.77;104688;1305;62107;-81
2022/07/14 11:48:18;;;;;;;;;;;;;;;28.14;34.72;100952.19;104644;1307;62100;-80
2022/07/14 11:50:44;;;;;;;;;;;;;;;28.14;34.88;100951.27;104602;1305;62116;-81
2022/07/14 11:53:10;;;;;;;;;;;;;;;28.14;34.77;100940.75;104601;1306;62188;-81
2022/07/14 11:55:37;;;;;;;;;;;;;;;28.14;34.84;100939.69;104956;1301;62050;-81
2022/07/14 11:58:03;;;;;;;;;;;;;;;28.14;35.01;100937.73;105073;1302;62079;-82
2022/07/14 12:00:29;;;;;;;;;;;;;;;28.14;34.88;100936.30;105109;1303;63239;-81
2022/07/14 12:02:55;;;;;;;;;;;;;;;28.14;35.04;100936.14;105233;1302;62059;-82
2022/07/14 12:05:21;;;;;;;;;;;;;;;28.14;35.19;100938.63;105179;1302;60804;-83
2022/07/14 12:07:47;;;;;;;;;;;;;;;28.14;35.01;100934.65;104877;1303;62108;-83
2022/07/14 12:10:13;;;;;;;;;;;;;;;28.14;34.99;100931.90;105201;1302;62173;-83
2022/07/14 12:12:47;;;;;;;;;;;;;;;28.14;34.73;100930.30;105128;1302;62084;-83
2022/07/14 12:15:20;;;;;;;;;;;;;;;28.14;34.77;100928.84;105144;1302;63176;-83
2022/07/14 12:17:50;;;;;;;;;;;;;;;28.15;34.96;100926.81;105203;1302;61942;-83
2022/07/14 12:20:15;;;;;;;;;;;;;;;28.14;34.91;100924.48;105060;1302;72919;-83
2022/07/14 12:22:44;;;;;;;;;;;;;;;28.15;35.05;100924.39;105180;1302;62062;-83
2022/07/14 12:25:25;;;;;;;;;;;;;;;28.16;35.03;100921.47;105182;1301;61963;-83
2022/07/14 12:27:51;;;;;;;;;;;;;;;28.16;35.00;100920.35;105171;1302;62107;-83
2022/07/14 12:30:16;;;;;;;;;;;;;;;28.17;35.09;100918.45;105206;1302;62088;-83
2022/07/14 12:32:41;;;;;;;;;;;;;;;28.17;35.15;100919.86;105162;1302;62056;-83
2022/07/14 12:35:07;;;;;;;;;;;;;;;28.17;34.92;100912.09;105160;1302;62286;-83
2022/07/14 12:37:33;;;;;;;;;;;;;;;28.17;35.08;100913.34;105179;1302;62080;-83
2022/07/14 12:39:58;;;;;;;;;;;;;;;28.18;35.06;100910.94;105141;1302;62049;-83
2022/07/14 12:42:24;;;;;;;;;;;;;;;28.18;35.16;100917.58;105184;1302;62069;-83
2022/07/14 12:44:57;;;;;;;;;;;;;;;28.19;35.13;100915.34;105156;1301;62172;-83
2022/07/14 12:47:23;;;;;;;;;;;;;;;28.19;34.93;100906.13;105087;1303;61868;-83